sensor_id;sensor_type;location;lat;lon;timestamp;pressure;altitude;pressure_sealevel;temperature;humidity
73700;BME280;62005;50.082;8.988;2023-01-29T00:00:49;101859.69;;;0.94;71.49
73700;BME280;62005;50.082;8.988;2023-01-29T00:03:15;101862.00;;;0.99;71.96
73700;BME280;62005;50.082;8.988;2023-01-29T00:05:40;101862.00;;;0.99;70.63
73700;BME280;62005;50.082;8.988;2023-01-29T00:08:05;101850.41;;;0.89;71.08
73700;BME280;62005;50.082;8.988;2023-01-29T00:10:31;101872.88;;;0.96;70.86
73700;BME280;62005;50.082;8.988;2023-01-29T00:12:56;101852.59;;;0.84;70.55
73700;BME280;62005;50.082;8.988;2023-01-29T00:15:21;101863.00;;;0.87;70.61
73700;BME280;62005;50.082;8.988;2023-01-29T00:17:47;101863.84;;;0.87;71.02
73700;BME280;62005;50.082;8.988;2023-01-29T00:20:12;101863.25;;;0.84;71.17
73700;BME280;62005;50.082;8.988;2023-01-29T00:22:38;101885.25;;;0.97;71.80
73700;BME280;62005;50.082;8.988;2023-01-29T00:25:03;101886.19;;;0.96;71.58
73700;BME280;62005;50.082;8.988;2023-01-29T00:27:28;101886.19;;;0.96;72.22
73700;BME280;62005;50.082;8.988;2023-01-29T00:29:54;101885.25;;;0.97;72.13
73700;BME280;62005;50.082;8.988;2023-01-29T00:32:39;101884.03;;;0.90;72.67
73700;BME280;62005;50.082;8.988;2023-01-29T00:35:06;101894.19;;;0.96;72.49
73700;BME280;62005;50.082;8.988;2023-01-29T00:37:32;101897.31;;;1.01;72.92
73700;BME280;62005;50.082;8.988;2023-01-29T00:39:57;101900.22;;;0.98;72.69
73700;BME280;62005;50.082;8.988;2023-01-29T00:42:23;101889.69;;;0.96;73.05
73700;BME280;62005;50.082;8.988;2023-01-29T00:45:07;101885.84;;;1.00;73.08
73700;BME280;62005;50.082;8.988;2023-01-29T00:47:32;101900.69;;;1.03;73.10
73700;BME280;62005;50.082;8.988;2023-01-29T00:49:59;101895.63;;;1.00;72.33
73700;BME280;62005;50.082;8.988;2023-01-29T00:52:25;101881.59;;;0.98;71.61
73700;BME280;62005;50.082;8.988;2023-01-29T00:54:51;101888.13;;;1.05;72.44
73700;BME280;62005;50.082;8.988;2023-01-29T00:57:17;101857.16;;;0.93;72.74
73700;BME280;62005;50.082;8.988;2023-01-29T00:59:42;101855.56;;;1.01;73.38
73700;BME280;62005;50.082;8.988;2023-01-29T01:02:07;101868.50;;;1.06;73.05
73700;BME280;62005;50.082;8.988;2023-01-29T01:04:51;101844.56;;;0.95;73.51
73700;BME280;62005;50.082;8.988;2023-01-29T01:07:17;101857.16;;;1.04;73.02
73700;BME280;62005;50.082;8.988;2023-01-29T01:09:42;101863.19;;;1.06;73.23
73700;BME280;62005;50.082;8.988;2023-01-29T01:12:27;101846.03;;;0.99;73.27
73700;BME280;62005;50.082;8.988;2023-01-29T01:14:52;101850.50;;;0.98;72.74
73700;BME280;62005;50.082;8.988;2023-01-29T01:17:18;101863.44;;;1.03;72.60
73700;BME280;62005;50.082;8.988;2023-01-29T01:19:43;101848.22;;;0.94;72.71
73700;BME280;62005;50.082;8.988;2023-01-29T01:22:09;101856.44;;;1.02;72.48
73700;BME280;62005;50.082;8.988;2023-01-29T01:24:34;101841.78;;;0.96;71.38
73700;BME280;62005;50.082;8.988;2023-01-29T01:27:00;101850.38;;;1.00;72.48
73700;BME280;62005;50.082;8.988;2023-01-29T01:29:25;101844.56;;;0.95;72.22
73700;BME280;62005;50.082;8.988;2023-01-29T01:31:52;101855.44;;;1.03;72.04
73700;BME280;62005;50.082;8.988;2023-01-29T01:34:17;101842.66;;;0.97;71.74
73700;BME280;62005;50.082;8.988;2023-01-29T01:36:43;101842.38;;;1.00;71.56
73700;BME280;62005;50.082;8.988;2023-01-29T01:39:08;101848.69;;;0.99;71.24
73700;BME280;62005;50.082;8.988;2023-01-29T01:41:34;101830.28;;;0.96;72.12
73700;BME280;62005;50.082;8.988;2023-01-29T01:44:01;101825.22;;;0.93;70.45
73700;BME280;62005;50.082;8.988;2023-01-29T01:46:31;101823.28;;;0.95;69.75
73700;BME280;62005;50.082;8.988;2023-01-29T01:49:15;101848.44;;;1.02;69.57
73700;BME280;62005;50.082;8.988;2023-01-29T01:51:45;101810.63;;;0.87;69.54
73700;BME280;62005;50.082;8.988;2023-01-29T01:54:18;101826.94;;;0.94;69.70
73700;BME280;62005;50.082;8.988;2023-01-29T01:56:49;101825.69;;;0.98;70.00
73700;BME280;62005;50.082;8.988;2023-01-29T01:59:17;101809.50;;;0.90;69.71
73700;BME280;62005;50.082;8.988;2023-01-29T02:01:46;101821.59;;;0.94;70.32
73700;BME280;62005;50.082;8.988;2023-01-29T02:04:18;101819.63;;;0.96;70.04
73700;BME280;62005;50.082;8.988;2023-01-29T02:07:06;101817.38;;;0.91;69.94
73700;BME280;62005;50.082;8.988;2023-01-29T02:09:55;101810.69;;;0.97;70.68
73700;BME280;62005;50.082;8.988;2023-01-29T02:12:25;101809.00;;;0.96;70.71
73700;BME280;62005;50.082;8.988;2023-01-29T02:14:50;101790.41;;;0.85;69.84
73700;BME280;62005;50.082;8.988;2023-01-29T02:17:17;101795.72;;;0.85;69.71
73700;BME280;62005;50.082;8.988;2023-01-29T02:22:49;101815.28;;;0.95;69.73
73700;BME280;62005;50.082;8.988;2023-01-29T02:30:56;101811.22;;;0.91;69.63
73700;BME280;62005;50.082;8.988;2023-01-29T02:33:32;101822.44;;;0.94;70.28
73700;BME280;62005;50.082;8.988;2023-01-29T02:39:11;101825.22;;;0.93;70.29
73700;BME280;62005;50.082;8.988;2023-01-29T02:42:00;101821.88;;;0.91;70.50
73700;BME280;62005;50.082;8.988;2023-01-29T02:44:37;101813.88;;;0.80;69.94
73700;BME280;62005;50.082;8.988;2023-01-29T02:47:10;101827.41;;;0.88;70.14
73700;BME280;62005;50.082;8.988;2023-01-29T02:50:44;101826.34;;;0.90;70.00
73700;BME280;62005;50.082;8.988;2023-01-29T02:53:13;101824.06;;;0.86;70.39
73700;BME280;62005;50.082;8.988;2023-01-29T02:55:44;101841.44;;;0.90;70.73
73700;BME280;62005;50.082;8.988;2023-01-29T02:58:19;101852.09;;;0.90;71.14
73700;BME280;62005;50.082;8.988;2023-01-29T03:00:46;101864.44;;;0.91;72.05
73700;BME280;62005;50.082;8.988;2023-01-29T03:03:19;101862.47;;;0.93;72.03
73700;BME280;62005;50.082;8.988;2023-01-29T03:06:01;101857.16;;;0.93;72.67
73700;BME280;62005;50.082;8.988;2023-01-29T03:08:35;101849.91;;;0.95;73.31
73700;BME280;62005;50.082;8.988;2023-01-29T03:11:07;101856.91;;;0.96;72.58
73700;BME280;62005;50.082;8.988;2023-01-29T03:13:44;101832.50;;;0.80;72.75
73700;BME280;62005;50.082;8.988;2023-01-29T03:16:25;101851.59;;;0.96;72.55
73700;BME280;62005;50.082;8.988;2023-01-29T03:19:01;101846.25;;;0.96;72.49
73700;BME280;62005;50.082;8.988;2023-01-29T03:21:32;101836.59;;;0.95;72.53
73700;BME280;62005;50.082;8.988;2023-01-29T03:24:28;101836.97;;;0.90;71.92
73700;BME280;62005;50.082;8.988;2023-01-29T03:27:15;101841.19;;;0.93;72.10
73700;BME280;62005;50.082;8.988;2023-01-29T03:30:04;101832.72;;;0.88;72.50
73700;BME280;62005;50.082;8.988;2023-01-29T03:32:49;101834.91;;;0.83;72.74
73700;BME280;62005;50.082;8.988;2023-01-29T03:35:19;101852.09;;;0.90;72.77
73700;BME280;62005;50.082;8.988;2023-01-29T03:38:02;101831.31;;;0.84;72.90
73700;BME280;62005;50.082;8.988;2023-01-29T03:40:40;101853.56;;;0.94;73.16
73700;BME280;62005;50.082;8.988;2023-01-29T03:43:14;101842.78;;;0.84;72.85
73700;BME280;62005;50.082;8.988;2023-01-29T03:46:12;101857.16;;;0.93;73.20
73700;BME280;62005;50.082;8.988;2023-01-29T03:48:54;101855.47;;;0.92;72.37
73700;BME280;62005;50.082;8.988;2023-01-29T03:51:40;101851.59;;;0.96;72.45
73700;BME280;62005;50.082;8.988;2023-01-29T03:57:14;101838.53;;;0.93;72.52
73700;BME280;62005;50.082;8.988;2023-01-29T03:59:58;101834.19;;;0.92;72.24
73700;BME280;62005;50.082;8.988;2023-01-29T04:02:30;101826.81;;;0.84;71.33
73700;BME280;62005;50.082;8.988;2023-01-29T04:05:04;101827.06;;;0.81;70.67
73700;BME280;62005;50.082;8.988;2023-01-29T04:07:32;101855.00;;;0.87;70.29
73700;BME280;62005;50.082;8.988;2023-01-29T04:10:06;101845.81;;;0.80;70.84
73700;BME280;62005;50.082;8.988;2023-01-29T04:12:42;101853.31;;;0.86;71.01
73700;BME280;62005;50.082;8.988;2023-01-29T04:15:12;101830.09;;;0.77;71.03
73700;BME280;62005;50.082;8.988;2023-01-29T04:17:42;101845.34;;;0.86;70.92
73700;BME280;62005;50.082;8.988;2023-01-29T04:20:09;101832.13;;;0.84;71.53
73700;BME280;62005;50.082;8.988;2023-01-29T04:22:37;101836.38;;;0.87;71.60
73700;BME280;62005;50.082;8.988;2023-01-29T04:25:09;101836.38;;;0.87;71.35
73700;BME280;62005;50.082;8.988;2023-01-29T04:27:44;101822.34;;;0.85;71.45
73700;BME280;62005;50.082;8.988;2023-01-29T04:41:19;101800.97;;;0.75;70.92
73700;BME280;62005;50.082;8.988;2023-01-29T04:44:10;101789.47;;;0.75;71.58
73700;BME280;62005;50.082;8.988;2023-01-29T04:50:15;101800.66;;;0.58;71.94
73700;BME280;62005;50.082;8.988;2023-01-29T04:55:23;101825.75;;;0.65;72.01
73700;BME280;62005;50.082;8.988;2023-01-29T04:57:53;101826.28;;;0.59;72.72
73700;BME280;62005;50.082;8.988;2023-01-29T05:00:27;101832.06;;;0.64;73.25
73700;BME280;62005;50.082;8.988;2023-01-29T05:02:56;101838.59;;;0.60;73.35
73700;BME280;62005;50.082;8.988;2023-01-29T05:05:23;101828.44;;;0.54;72.93
73700;BME280;62005;50.082;8.988;2023-01-29T05:07:48;101818.31;;;0.48;73.03
73700;BME280;62005;50.082;8.988;2023-01-29T05:10:17;101843.69;;;0.63;72.88
73700;BME280;62005;50.082;8.988;2023-01-29T05:12:47;101834.13;;;0.60;73.17
73700;BME280;62005;50.082;8.988;2023-01-29T05:15:18;101838.38;;;0.63;72.75
73700;BME280;62005;50.082;8.988;2023-01-29T05:17:44;101810.81;;;0.53;73.14
73700;BME280;62005;50.082;8.988;2023-01-29T05:20:10;101809.84;;;0.54;72.81
73700;BME280;62005;50.082;8.988;2023-01-29T05:22:38;101804.53;;;0.43;72.58
73700;BME280;62005;50.082;8.988;2023-01-29T05:27:45;101821.44;;;0.53;72.35
73700;BME280;62005;50.082;8.988;2023-01-29T05:30:28;101810.34;;;0.48;72.44
73700;BME280;62005;50.082;8.988;2023-01-29T05:32:54;101805.97;;;0.47;72.29
73700;BME280;62005;50.082;8.988;2023-01-29T05:35:19;101805.97;;;0.47;72.15
73700;BME280;62005;50.082;8.988;2023-01-29T05:37:44;101813.59;;;0.51;72.80
73700;BME280;62005;50.082;8.988;2023-01-29T05:40:10;101812.00;;;0.49;72.77
73700;BME280;62005;50.082;8.988;2023-01-29T05:42:35;101812.25;;;0.46;72.52
73700;BME280;62005;50.082;8.988;2023-01-29T05:45:01;101806.22;;;0.44;71.83
73700;BME280;62005;50.082;8.988;2023-01-29T05:47:26;101796.31;;;0.35;72.30
73700;BME280;62005;50.082;8.988;2023-01-29T05:49:51;101818.53;;;0.45;72.55
73700;BME280;62005;50.082;8.988;2023-01-29T05:52:17;101816.84;;;0.44;72.71
73700;BME280;62005;50.082;8.988;2023-01-29T05:54:42;101807.19;;;0.32;72.45
73700;BME280;62005;50.082;8.988;2023-01-29T05:57:07;101827.75;;;0.41;73.04
73700;BME280;62005;50.082;8.988;2023-01-29T05:59:33;101819.28;;;0.36;72.77
73700;BME280;62005;50.082;8.988;2023-01-29T06:01:58;101818.78;;;0.42;72.86
73700;BME280;62005;50.082;8.988;2023-01-29T06:04:23;101800.41;;;0.39;72.66
73700;BME280;62005;50.082;8.988;2023-01-29T06:06:49;101796.31;;;0.35;72.94
73700;BME280;62005;50.082;8.988;2023-01-29T06:09:14;101806.97;;;0.35;72.62
73700;BME280;62005;50.082;8.988;2023-01-29T06:11:39;101806.97;;;0.35;73.49
73700;BME280;62005;50.082;8.988;2023-01-29T06:14:05;101815.19;;;0.43;73.28
73700;BME280;62005;50.082;8.988;2023-01-29T06:16:30;101812.75;;;0.40;74.11
73700;BME280;62005;50.082;8.988;2023-01-29T06:18:56;101818.56;;;0.34;74.09
73700;BME280;62005;50.082;8.988;2023-01-29T06:21:21;101826.06;;;0.40;74.35
73700;BME280;62005;50.082;8.988;2023-01-29T06:23:46;101822.53;;;0.39;74.18
73700;BME280;62005;50.082;8.988;2023-01-29T06:26:13;101823.41;;;0.40;74.30
73700;BME280;62005;50.082;8.988;2023-01-29T06:28:39;101803.81;;;0.30;74.40
73700;BME280;62005;50.082;8.988;2023-01-29T06:31:06;101816.38;;;0.39;74.34
73700;BME280;62005;50.082;8.988;2023-01-29T06:33:32;101800.69;;;0.25;74.82
73700;BME280;62005;50.082;8.988;2023-01-29T06:36:00;101818.44;;;0.35;74.79
73700;BME280;62005;50.082;8.988;2023-01-29T06:38:26;101805.63;;;0.29;74.93
73700;BME280;62005;50.082;8.988;2023-01-29T06:40:52;101802.97;;;0.29;74.58
73700;BME280;62005;50.082;8.988;2023-01-29T06:43:18;101810.81;;;0.31;74.89
73700;BME280;62005;50.082;8.988;2023-01-29T06:45:51;101803.81;;;0.30;75.27
73700;BME280;62005;50.082;8.988;2023-01-29T06:48:17;101809.16;;;0.30;75.27
73700;BME280;62005;50.082;8.988;2023-01-29T06:50:43;101795.25;;;0.26;75.17
73700;BME280;62005;50.082;8.988;2023-01-29T06:53:09;101795.59;;;0.22;74.08
73700;BME280;62005;50.082;8.988;2023-01-29T06:55:34;101804.03;;;0.27;73.78
73700;BME280;62005;50.082;8.988;2023-01-29T06:58:04;101811.31;;;0.25;74.16
73700;BME280;62005;50.082;8.988;2023-01-29T07:00:30;101809.59;;;0.24;73.75
73700;BME280;62005;50.082;8.988;2023-01-29T07:02:55;101798.00;;;0.14;74.31
73700;BME280;62005;50.082;8.988;2023-01-29T07:05:20;101818.56;;;0.23;74.12
73700;BME280;62005;50.082;8.988;2023-01-29T07:07:46;101817.34;;;0.16;73.78
73700;BME280;62005;50.082;8.988;2023-01-29T07:10:11;101832.72;;;0.23;74.05
73700;BME280;62005;50.082;8.988;2023-01-29T07:12:36;101841.50;;;0.24;74.26
73700;BME280;62005;50.082;8.988;2023-01-29T07:15:02;101848.53;;;0.25;74.64
73700;BME280;62005;50.082;8.988;2023-01-29T07:17:27;101831.38;;;0.18;74.05
73700;BME280;62005;50.082;8.988;2023-01-29T07:19:53;101856.75;;;0.33;74.03
73700;BME280;62005;50.082;8.988;2023-01-29T07:22:18;101858.44;;;0.34;74.05
73700;BME280;62005;50.082;8.988;2023-01-29T07:24:43;101854.84;;;0.35;73.57
73700;BME280;62005;50.082;8.988;2023-01-29T07:27:09;101844.41;;;0.32;74.49
73700;BME280;62005;50.082;8.988;2023-01-29T07:29:34;101846.13;;;0.33;73.97
73700;BME280;62005;50.082;8.988;2023-01-29T07:31:59;101846.38;;;0.30;75.16
73700;BME280;62005;50.082;8.988;2023-01-29T07:34:24;101851.19;;;0.36;74.61
73700;BME280;62005;50.082;8.988;2023-01-29T07:36:53;101840.31;;;0.39;75.06
73700;BME280;62005;50.082;8.988;2023-01-29T07:39:18;101827.03;;;0.28;75.16
73700;BME280;62005;50.082;8.988;2023-01-29T07:41:44;101828.72;;;0.29;75.26
73700;BME280;62005;50.082;8.988;2023-01-29T07:44:09;101850.69;;;0.42;75.09
73700;BME280;62005;50.082;8.988;2023-01-29T07:46:34;101856.00;;;0.42;75.12
73700;BME280;62005;50.082;8.988;2023-01-29T07:48:59;101849.88;;;0.41;75.46
73700;BME280;62005;50.082;8.988;2023-01-29T07:51:25;101839.81;;;0.45;75.45
73700;BME280;62005;50.082;8.988;2023-01-29T07:53:50;101825.81;;;0.43;75.68
73700;BME280;62005;50.082;8.988;2023-01-29T07:56:15;101818.53;;;0.45;75.52
73700;BME280;62005;50.082;8.988;2023-01-29T07:58:41;101796.31;;;0.35;75.49
73700;BME280;62005;50.082;8.988;2023-01-29T08:01:06;101825.06;;;0.52;74.96
73700;BME280;62005;50.082;8.988;2023-01-29T08:03:32;101829.44;;;0.53;74.23
73700;BME280;62005;50.082;8.988;2023-01-29T08:05:57;101833.53;;;0.57;73.35
73700;BME280;62005;50.082;8.988;2023-01-29T08:08:22;101825.06;;;0.52;74.07
73700;BME280;62005;50.082;8.988;2023-01-29T08:10:48;101821.44;;;0.53;74.46
73700;BME280;62005;50.082;8.988;2023-01-29T08:13:13;101836.66;;;0.62;74.49
73700;BME280;62005;50.082;8.988;2023-01-29T08:15:42;101844.75;;;0.71;74.40
73700;BME280;62005;50.082;8.988;2023-01-29T08:18:13;101851.03;;;0.70;74.15
73700;BME280;62005;50.082;8.988;2023-01-29T08:20:41;101862.28;;;0.74;73.96
73700;BME280;62005;50.082;8.988;2023-01-29T08:23:46;101874.72;;;0.84;74.37
73700;BME280;62005;50.082;8.988;2023-01-29T08:26:34;101783.25;;;0.43;74.02
73700;BME280;62005;50.082;8.988;2023-01-29T08:32:25;101770.88;;;0.64;73.50
73700;BME280;62005;50.082;8.988;2023-01-29T08:35:19;101818.63;;;1.08;73.78
73700;BME280;62005;50.082;8.988;2023-01-29T08:44:18;101783.47;;;0.93;71.89
73700;BME280;62005;50.082;8.988;2023-01-29T08:50:35;101794.47;;;1.00;72.02
73700;BME280;62005;50.082;8.988;2023-01-29T08:55:58;101766.91;;;0.90;72.33
73700;BME280;62005;50.082;8.988;2023-01-29T08:58:24;101771.03;;;0.94;71.79
73700;BME280;62005;50.082;8.988;2023-01-29T09:01:09;101799.75;;;1.11;71.43
73700;BME280;62005;50.082;8.988;2023-01-29T09:03:54;101845.28;;;1.40;71.06
73700;BME280;62005;50.082;8.988;2023-01-29T09:06:37;101816.69;;;1.10;71.65
73700;BME280;62005;50.082;8.988;2023-01-29T09:09:33;101799.78;;;1.00;71.72
73700;BME280;62005;50.082;8.988;2023-01-29T09:15:31;101802.72;;;0.97;71.15
73700;BME280;62005;50.082;8.988;2023-01-29T09:18:04;101882.03;;;1.46;71.97
73700;BME280;62005;50.082;8.988;2023-01-29T09:20:40;101838.84;;;1.10;71.12
73700;BME280;62005;50.082;8.988;2023-01-29T09:26:59;101874.97;;;1.24;71.08
73700;BME280;62005;50.082;8.988;2023-01-29T09:29:43;101841.88;;;1.06;71.30
73700;BME280;62005;50.082;8.988;2023-01-29T09:32:22;101860.50;;;1.17;70.29
73700;BME280;62005;50.082;8.988;2023-01-29T09:35:00;101838.25;;;1.07;70.72
73700;BME280;62005;50.082;8.988;2023-01-29T09:37:48;101824.22;;;1.05;70.75
73700;BME280;62005;50.082;8.988;2023-01-29T09:45:58;101908.94;;;1.54;70.71
73700;BME280;62005;50.082;8.988;2023-01-29T09:48:27;101896.69;;;1.51;70.83
73700;BME280;62005;50.082;8.988;2023-01-29T09:50:56;101897.16;;;1.56;70.23
73700;BME280;62005;50.082;8.988;2023-01-29T09:56:40;101895.34;;;1.57;70.62
73700;BME280;62005;50.082;8.988;2023-01-29T09:59:10;101878.16;;;1.50;70.31
73700;BME280;62005;50.082;8.988;2023-01-29T10:02:08;101890.59;;;1.60;69.34
73700;BME280;62005;50.082;8.988;2023-01-29T10:07:37;101885.03;;;1.63;69.79
73700;BME280;62005;50.082;8.988;2023-01-29T10:10:13;101870.25;;;1.59;69.70
73700;BME280;62005;50.082;8.988;2023-01-29T10:15:37;101855.19;;;1.69;68.68
73700;BME280;62005;50.082;8.988;2023-01-29T10:18:45;101849.84;;;1.69;69.24
73700;BME280;62005;50.082;8.988;2023-01-29T10:24:14;101845.97;;;1.73;69.54
73700;BME280;62005;50.082;8.988;2023-01-29T10:26:46;101822.47;;;1.67;68.45
73700;BME280;62005;50.082;8.988;2023-01-29T10:29:16;101808.47;;;1.65;69.11
73700;BME280;62005;50.082;8.988;2023-01-29T10:31:43;101824.38;;;1.76;68.08
73700;BME280;62005;50.082;8.988;2023-01-29T10:34:32;101797.53;;;1.68;68.19
73700;BME280;62005;50.082;8.988;2023-01-29T10:37:00;101812.72;;;1.77;68.32
73700;BME280;62005;50.082;8.988;2023-01-29T10:39:32;101811.03;;;1.76;68.53
73700;BME280;62005;50.082;8.988;2023-01-29T10:42:20;101817.56;;;1.83;68.96
73700;BME280;62005;50.082;8.988;2023-01-29T10:50:27;101800.13;;;1.79;68.27
73700;BME280;62005;50.082;8.988;2023-01-29T10:58:40;101788.69;;;1.88;67.51
73700;BME280;62005;50.082;8.988;2023-01-29T11:01:08;101770.06;;;1.77;66.79
73700;BME280;62005;50.082;8.988;2023-01-29T11:03:34;101784.44;;;1.86;67.30
73700;BME280;62005;50.082;8.988;2023-01-29T11:08:30;101777.28;;;1.86;66.39
73700;BME280;62005;50.082;8.988;2023-01-29T11:11:17;101781.63;;;1.87;67.02
73700;BME280;62005;50.082;8.988;2023-01-29T11:13:47;101772.69;;;1.88;66.61
73700;BME280;62005;50.082;8.988;2023-01-29T11:16:15;101760.31;;;1.87;67.58
73700;BME280;62005;50.082;8.988;2023-01-29T11:18:51;101758.09;;;1.92;67.44
73700;BME280;62005;50.082;8.988;2023-01-29T11:21:17;101751.66;;;1.95;67.37
73700;BME280;62005;50.082;8.988;2023-01-29T11:23:42;101738.19;;;1.96;66.75
73700;BME280;62005;50.082;8.988;2023-01-29T11:26:11;101707.44;;;1.92;67.29
73700;BME280;62005;50.082;8.988;2023-01-29T11:28:46;101714.91;;;1.98;66.62
73700;BME280;62005;50.082;8.988;2023-01-29T11:31:26;101721.09;;;2.08;66.58
73700;BME280;62005;50.082;8.988;2023-01-29T11:34:02;101721.16;;;2.18;66.43
73700;BME280;62005;50.082;8.988;2023-01-29T11:36:36;101712.72;;;2.13;66.73
73700;BME280;62005;50.082;8.988;2023-01-29T11:39:14;101714.41;;;2.23;66.24
73700;BME280;62005;50.082;8.988;2023-01-29T12:58:55;101548.97;;;3.27;63.06
73700;BME280;62005;50.082;8.988;2023-01-29T13:08:17;101565.91;;;3.45;62.41
73700;BME280;62005;50.082;8.988;2023-01-29T13:10:48;101577.16;;;3.48;61.54
73700;BME280;62005;50.082;8.988;2023-01-29T13:15:59;101514.31;;;3.08;62.58
73700;BME280;62005;50.082;8.988;2023-01-29T13:21:38;101513.66;;;3.06;62.67
73700;BME280;62005;50.082;8.988;2023-01-29T13:24:03;101579.19;;;3.37;63.70
73700;BME280;62005;50.082;8.988;2023-01-29T13:26:29;101571.00;;;3.38;63.52
73700;BME280;62005;50.082;8.988;2023-01-29T13:28:56;101560.78;;;3.34;62.68
73700;BME280;62005;50.082;8.988;2023-01-29T13:31:35;101556.41;;;3.33;61.97
73700;BME280;62005;50.082;8.988;2023-01-29T13:36:42;101568.50;;;3.37;62.89
73700;BME280;62005;50.082;8.988;2023-01-29T13:39:35;101544.59;;;3.26;62.95
73700;BME280;62005;50.082;8.988;2023-01-29T13:42:20;101568.19;;;3.40;62.83
73700;BME280;62005;50.082;8.988;2023-01-29T13:44:55;101557.81;;;3.37;63.02
73700;BME280;62005;50.082;8.988;2023-01-29T13:47:27;101553.84;;;3.41;62.60
73700;BME280;62005;50.082;8.988;2023-01-29T13:49:59;101559.97;;;3.51;61.77
73700;BME280;62005;50.082;8.988;2023-01-29T13:52:45;101563.03;;;3.56;61.93
73700;BME280;62005;50.082;8.988;2023-01-29T14:10:39;101533.91;;;3.26;63.68
73700;BME280;62005;50.082;8.988;2023-01-29T14:15:45;101524.84;;;3.19;63.25
73700;BME280;62005;50.082;8.988;2023-01-29T14:18:44;101523.53;;;3.23;63.47
73700;BME280;62005;50.082;8.988;2023-01-29T14:21:20;101529.19;;;3.20;64.08
73700;BME280;62005;50.082;8.988;2023-01-29T14:24:27;101534.81;;;3.17;64.16
73700;BME280;62005;50.082;8.988;2023-01-29T14:41:05;101534.88;;;2.98;64.42
73700;BME280;62005;50.082;8.988;2023-01-29T14:43:45;101452.13;;;2.51;64.90
73700;BME280;62005;50.082;8.988;2023-01-29T14:46:51;101490.16;;;2.73;64.05
73700;BME280;62005;50.082;8.988;2023-01-29T14:50:00;101481.31;;;2.62;64.07
73700;BME280;62005;50.082;8.988;2023-01-29T14:52:46;101451.28;;;2.41;64.75
73700;BME280;62005;50.082;8.988;2023-01-29T14:55:43;101518.22;;;2.77;64.50
73700;BME280;62005;50.082;8.988;2023-01-29T15:01:00;101517.09;;;2.69;64.20
73700;BME280;62005;50.082;8.988;2023-01-29T16:00:47;101376.47;;;1.40;66.54
73700;BME280;62005;50.082;8.988;2023-01-29T16:03:56;101418.41;;;1.66;66.50
73700;BME280;62005;50.082;8.988;2023-01-29T16:06:50;101375.19;;;1.34;66.41
73700;BME280;62005;50.082;8.988;2023-01-29T16:09:20;101451.94;;;1.78;67.45
73700;BME280;62005;50.082;8.988;2023-01-29T16:25:38;101460.88;;;1.49;68.61
73700;BME280;62005;50.082;8.988;2023-01-29T16:28:05;101474.06;;;1.50;68.59
73700;BME280;62005;50.082;8.988;2023-01-29T16:30:31;101471.78;;;1.46;68.31
73700;BME280;62005;50.082;8.988;2023-01-29T16:35:51;101396.00;;;0.91;69.27
73700;BME280;62005;50.082;8.988;2023-01-29T16:38:45;101480.75;;;1.35;69.18
73700;BME280;62005;50.082;8.988;2023-01-29T16:48:48;101408.97;;;0.75;69.82
73700;BME280;62005;50.082;8.988;2023-01-29T16:51:44;101420.88;;;0.71;69.33
73700;BME280;62005;50.082;8.988;2023-01-29T16:54:41;101487.69;;;1.07;70.15
73700;BME280;62005;50.082;8.988;2023-01-29T16:57:20;101498.88;;;1.11;69.70
73700;BME280;62005;50.082;8.988;2023-01-29T16:59:47;101491.00;;;1.00;69.95
73700;BME280;62005;50.082;8.988;2023-01-29T17:02:26;101496.06;;;1.03;70.26
73700;BME280;62005;50.082;8.988;2023-01-29T17:05:43;101501.38;;;1.03;69.56
73700;BME280;62005;50.082;8.988;2023-01-29T17:22:28;101458.91;;;0.62;70.10
73700;BME280;62005;50.082;8.988;2023-01-29T17:25:14;101498.19;;;0.79;71.22
73700;BME280;62005;50.082;8.988;2023-01-29T17:27:40;101505.72;;;0.74;71.37
73700;BME280;62005;50.082;8.988;2023-01-29T17:30:13;101498.53;;;0.65;71.75
73700;BME280;62005;50.082;8.988;2023-01-29T17:32:39;101492.75;;;0.60;71.94
73700;BME280;62005;50.082;8.988;2023-01-29T17:54:54;101472.50;;;0.18;73.05
73700;BME280;62005;50.082;8.988;2023-01-29T17:57:43;101442.63;;;-0.07;72.32
73700;BME280;62005;50.082;8.988;2023-01-29T18:22:13;101422.72;;;-0.33;74.64
73700;BME280;62005;50.082;8.988;2023-01-29T18:24:56;101397.44;;;-0.48;75.05
73700;BME280;62005;50.082;8.988;2023-01-29T18:27:48;101387.84;;;-0.60;75.44
73700;BME280;62005;50.082;8.988;2023-01-29T18:34:32;101381.59;;;-0.70;75.26
73700;BME280;62005;50.082;8.988;2023-01-29T18:37:41;101390.84;;;-0.64;75.01
73700;BME280;62005;50.082;8.988;2023-01-29T18:40:51;101385.00;;;-0.68;74.82
73700;BME280;62005;50.082;8.988;2023-01-29T18:57:30;101452.16;;;-0.25;74.50
73700;BME280;62005;50.082;8.988;2023-01-29T19:07:29;101405.97;;;-0.65;75.28
73700;BME280;62005;50.082;8.988;2023-01-29T19:13:19;101399.97;;;-0.78;75.29
73700;BME280;62005;50.082;8.988;2023-01-29T19:19:37;101372.16;;;-0.94;75.50
73700;BME280;62005;50.082;8.988;2023-01-29T19:22:28;101354.44;;;-1.05;75.64
73700;BME280;62005;50.082;8.988;2023-01-29T19:27:57;101438.97;;;-0.58;76.77
73700;BME280;62005;50.082;8.988;2023-01-29T19:40:28;101372.38;;;-0.97;78.24
73700;BME280;62005;50.082;8.988;2023-01-29T19:43:06;101375.16;;;-0.99;78.56
73700;BME280;62005;50.082;8.988;2023-01-29T19:49:43;101349.88;;;-1.14;78.88
73700;BME280;62005;50.082;8.988;2023-01-29T19:52:47;101402.84;;;-0.81;79.36
73700;BME280;62005;50.082;8.988;2023-01-29T19:55:13;101388.91;;;-0.94;79.33
73700;BME280;62005;50.082;8.988;2023-01-29T19:57:38;101419.03;;;-0.84;78.98
73700;BME280;62005;50.082;8.988;2023-01-29T20:00:04;101408.19;;;-0.92;79.33
73700;BME280;62005;50.082;8.988;2023-01-29T20:02:30;101430.63;;;-0.85;79.68
73700;BME280;62005;50.082;8.988;2023-01-29T20:04:57;101413.50;;;-0.92;79.58
73700;BME280;62005;50.082;8.988;2023-01-29T20:07:23;101427.25;;;-0.87;79.80
73700;BME280;62005;50.082;8.988;2023-01-29T20:09:49;101420.25;;;-0.88;79.81
73700;BME280;62005;50.082;8.988;2023-01-29T20:12:14;101427.75;;;-0.93;79.88
73700;BME280;62005;50.082;8.988;2023-01-29T20:14:40;101425.44;;;-0.97;79.80